createdAt,value
2019-01-09T00:00:55.174Z,99561.98
2019-01-09T00:03:25.114Z,99559.67
2019-01-09T00:05:55.062Z,99556.66
2019-01-09T00:08:24.973Z,99560.67
2019-01-09T00:10:54.869Z,99567.47
2019-01-09T00:13:25.163Z,99564.97
2019-01-09T00:15:55.162Z,99564.47
2019-01-09T00:18:25.230Z,99575.19
2019-01-09T00:20:55.247Z,99570.73
2019-01-09T00:23:25.621Z,99575.63
2019-01-09T00:25:55.506Z,99580.05
2019-01-09T00:28:25.444Z,99577.09
2019-01-09T00:30:55.955Z,99583.05
2019-01-09T00:33:26.084Z,99580.39
2019-01-09T00:35:55.959Z,99581.91
2019-01-09T00:38:25.929Z,99578.50
2019-01-09T00:40:55.946Z,99579.78
2019-01-09T00:43:25.985Z,99585.20
2019-01-09T00:45:56.025Z,99584.16
2019-01-09T00:48:26.101Z,99591.50
2019-01-09T00:50:56.334Z,99588.97
2019-01-09T00:53:26.432Z,99583.86
2019-01-09T00:55:56.426Z,99593.86
2019-01-09T00:58:26.490Z,99601.69
2019-01-09T01:01:17.549Z,99594.94
2019-01-09T01:04:31.651Z,99609.53
2019-01-09T01:07:58.016Z,99602.56
2019-01-09T01:11:16.405Z,99614.78
2019-01-09T01:14:37.411Z,99611.55
2019-01-09T01:17:54.011Z,99614.25
2019-01-09T01:21:19.415Z,99616.09
2019-01-09T01:24:27.453Z,99617.65
2019-01-09T01:27:38.200Z,99627.73
2019-01-09T01:30:46.510Z,99621.77
2019-01-09T01:33:37.029Z,99630.13
2019-01-09T01:36:55.485Z,99643.75
2019-01-09T01:40:17.416Z,99645.11
2019-01-09T01:43:38.995Z,99656.17
2019-01-09T01:46:47.189Z,99659.14
2019-01-09T01:50:15.638Z,99650.87
2019-01-09T01:53:20.000Z,99660.41
2019-01-09T01:57:00.674Z,99664.48
2019-01-09T01:59:39.367Z,99661.66
2019-01-09T02:02:38.963Z,99669.63
2019-01-09T02:05:49.125Z,99673.56
2019-01-09T02:09:19.998Z,99677.64
2019-01-09T02:12:13.918Z,99683.58
2019-01-09T02:15:35.160Z,99686.31
2019-01-09T02:18:35.113Z,99695.21
2019-01-09T02:22:23.804Z,99702.41
2019-01-09T02:25:18.335Z,99700.97
2019-01-09T02:28:45.543Z,99712.97
2019-01-09T02:31:58.253Z,99718.14
2019-01-09T02:34:28.513Z,99711.41
2019-01-09T02:36:58.405Z,99720.92
2019-01-09T02:39:28.377Z,99728.27
2019-01-09T02:41:58.427Z,99727.45
2019-01-09T02:44:32.445Z,99731.52
2019-01-09T02:47:00.240Z,99732.80
2019-01-09T02:49:30.232Z,99733.27
2019-01-09T02:52:00.358Z,99738.26
2019-01-09T02:54:30.256Z,99730.33
2019-01-09T02:57:00.130Z,99730.25
2019-01-09T02:59:30.219Z,99742.37
2019-01-09T03:02:00.093Z,99742.80
2019-01-09T03:04:30.070Z,99744.26
2019-01-09T03:06:59.996Z,99740.67
2019-01-09T03:09:30.071Z,99747.05
2019-01-09T03:12:00.417Z,99743.22
2019-01-09T03:14:30.401Z,99751.19
2019-01-09T03:17:00.541Z,99747.03
2019-01-09T03:19:30.496Z,99749.05
2019-01-09T03:22:00.482Z,99756.92
2019-01-09T03:24:30.368Z,99759.58
2019-01-09T03:27:00.309Z,99757.36
2019-01-09T03:29:30.616Z,99759.97
2019-01-09T03:32:00.728Z,99758.26
2019-01-09T03:34:30.620Z,99769.48
2019-01-09T03:37:00.581Z,99766.11
2019-01-09T03:39:30.703Z,99778.33
2019-01-09T03:42:01.067Z,99767.33
2019-01-09T03:44:31.244Z,99764.91
2019-01-09T03:47:01.157Z,99778.46
2019-01-09T03:49:31.056Z,99780.02
2019-01-09T03:52:00.965Z,99775.02
2019-01-09T03:54:30.930Z,99781.47
2019-01-09T03:57:00.791Z,99781.94
2019-01-09T03:59:30.671Z,99780.25
2019-01-09T04:02:01.006Z,99786.87
2019-01-09T04:04:31.118Z,99788.88
2019-01-09T04:07:01.201Z,99790.42
2019-01-09T04:09:31.192Z,99795.55
2019-01-09T04:12:01.088Z,99794.71
2019-01-09T04:14:31.011Z,99792.70
2019-01-09T04:17:01.132Z,99794.27
2019-01-09T04:19:31.125Z,99806.53
2019-01-09T04:22:01.266Z,99810.81
2019-01-09T04:24:31.365Z,99806.55
2019-01-09T04:27:01.305Z,99809.25
2019-01-09T04:29:31.407Z,99816.17
2019-01-09T04:32:01.820Z,99808.34
2019-01-09T04:34:31.690Z,99810.48
2019-01-09T04:37:01.944Z,99809.48
2019-01-09T04:39:31.840Z,99816.84
2019-01-09T04:42:01.772Z,99820.70
2019-01-09T04:44:31.664Z,99820.63
2019-01-09T04:47:01.866Z,99815.92
2019-01-09T04:49:31.831Z,99818.30
2019-01-09T04:52:01.708Z,99823.25
2019-01-09T04:54:31.584Z,99826.30
2019-01-09T04:57:01.773Z,99824.16
2019-01-09T04:59:31.645Z,99828.47
2019-01-09T05:02:01.562Z,99827.50
2019-01-09T05:04:31.440Z,99823.61
2019-01-09T05:07:01.328Z,99828.21
2019-01-09T05:09:31.283Z,99827.50
2019-01-09T05:12:01.360Z,99828.72
2019-01-09T05:14:31.347Z,99824.38
2019-01-09T05:17:01.279Z,99836.54
2019-01-09T05:19:31.253Z,99839.44
2019-01-09T05:22:01.446Z,99838.11
2019-01-09T05:24:31.513Z,99846.39
2019-01-09T05:27:01.440Z,99844.32
2019-01-09T05:29:31.338Z,99854.16
2019-01-09T05:32:01.524Z,99848.21
2019-01-09T05:34:31.391Z,99841.56
2019-01-09T05:37:09.506Z,99862.69
2019-01-09T05:39:39.628Z,99857.06
2019-01-09T05:42:04.743Z,99860.16
2019-01-09T05:44:34.676Z,99865.47
2019-01-09T05:47:04.556Z,99860.80
2019-01-09T05:49:34.464Z,99868.23
2019-01-09T05:52:04.567Z,99879.19
2019-01-09T05:54:34.686Z,99870.75
2019-01-09T05:57:04.847Z,99875.85
2019-01-09T05:59:34.779Z,99883.57
2019-01-09T06:02:04.946Z,99883.36
2019-01-09T06:04:34.831Z,99887.67
2019-01-09T06:07:04.839Z,99884.11
2019-01-09T06:09:34.782Z,99887.14
2019-01-09T06:12:04.691Z,99883.20
2019-01-09T06:14:34.900Z,99896.20
2019-01-09T06:17:04.785Z,99896.12
2019-01-09T06:19:34.667Z,99910.20
2019-01-09T06:22:04.586Z,99901.09
2019-01-09T06:24:34.533Z,99908.64
2019-01-09T06:27:04.682Z,99918.16
2019-01-09T06:29:35.301Z,99919.70
2019-01-09T06:32:05.152Z,99916.55
2019-01-09T06:34:35.045Z,99919.47
2019-01-09T06:37:04.945Z,99922.44
2019-01-09T06:39:35.181Z,99928.06
2019-01-09T06:42:05.406Z,99932.48
2019-01-09T06:44:35.307Z,99944.28
2019-01-09T06:47:05.222Z,99943.91
2019-01-09T06:49:35.130Z,99937.20
2019-01-09T06:52:05.049Z,99928.60
2019-01-09T06:54:35.526Z,99937.02
2019-01-09T06:57:05.498Z,99942.05
2019-01-09T06:59:35.414Z,99941.44
2019-01-09T07:02:05.258Z,99957.28
2019-01-09T07:04:35.154Z,99953.69
2019-01-09T07:07:05.594Z,99954.27
2019-01-09T07:09:35.552Z,99971.91
2019-01-09T07:12:05.600Z,99965.44
2019-01-09T07:14:35.990Z,99968.45
2019-01-09T07:17:05.960Z,99987.52
2019-01-09T07:19:36.403Z,99974.27
2019-01-09T07:22:06.423Z,99982.62
2019-01-09T07:24:36.941Z,99979.42
2019-01-09T07:27:07.270Z,99979.25
2019-01-09T07:29:37.158Z,99990.02
2019-01-09T07:32:07.235Z,99984.95
2019-01-09T07:34:37.121Z,99997.09
2019-01-09T07:37:07.192Z,100005.70
2019-01-09T07:39:37.104Z,100000.56
2019-01-09T07:42:07.058Z,100004.10
2019-01-09T07:44:36.963Z,100007.66
2019-01-09T07:47:07.316Z,100001.81
2019-01-09T07:49:37.534Z,100019.84
2019-01-09T07:52:07.481Z,100019.34
2019-01-09T07:54:37.428Z,100023.17
2019-01-09T07:57:07.586Z,100031.46
2019-01-09T07:59:37.507Z,100028.06
2019-01-09T08:02:07.594Z,100031.55
2019-01-09T08:04:37.502Z,100035.88
2019-01-09T08:07:07.522Z,100038.59
2019-01-09T08:09:37.443Z,100045.60
2019-01-09T08:12:07.668Z,100056.47
2019-01-09T08:14:37.645Z,100056.18
2019-01-09T08:17:07.625Z,100051.95
2019-01-09T08:19:37.808Z,100063.00
2019-01-09T08:22:07.785Z,100061.33
2019-01-09T08:24:37.759Z,100070.19
2019-01-09T08:27:07.676Z,100083.85
2019-01-09T08:29:37.666Z,100085.44
2019-01-09T08:32:07.958Z,100084.27
2019-01-09T08:34:37.878Z,100092.81
2019-01-09T08:37:08.049Z,100090.09
2019-01-09T08:39:37.976Z,100102.27
2019-01-09T08:42:07.861Z,100100.70
2019-01-09T08:44:37.957Z,100112.70
2019-01-09T08:47:08.024Z,100117.30
2019-01-09T08:49:37.960Z,100140.84
2019-01-09T08:52:07.829Z,100120.61
2019-01-09T08:54:37.780Z,100132.72
2019-01-09T08:57:07.675Z,100127.55
2019-01-09T08:59:37.924Z,100137.23
2019-01-09T09:02:07.906Z,100129.39
2019-01-09T09:04:37.908Z,100142.23
2019-01-09T09:07:07.877Z,100149.44
2019-01-09T09:09:38.118Z,100162.46
2019-01-09T09:12:08.026Z,100159.70
2019-01-09T09:14:37.968Z,100164.56
2019-01-09T09:17:08.007Z,100166.37
2019-01-09T09:19:37.892Z,100184.14
2019-01-09T09:22:07.817Z,100173.66
2019-01-09T09:24:37.735Z,100187.13
2019-01-09T09:27:07.690Z,100185.70
2019-01-09T09:29:37.584Z,100196.53
2019-01-09T09:32:08.455Z,100191.97
2019-01-09T09:34:38.429Z,100192.97
2019-01-09T09:37:08.590Z,100202.03
2019-01-09T09:39:38.682Z,100215.58
2019-01-09T09:42:08.552Z,100203.66
2019-01-09T09:44:38.422Z,100203.75
2019-01-09T09:47:08.626Z,100224.43
2019-01-09T09:49:38.501Z,100227.04
2019-01-09T09:52:08.534Z,100236.18
2019-01-09T09:54:38.500Z,100223.16
2019-01-09T09:57:08.385Z,100230.30
2019-01-09T09:59:38.489Z,100244.87
2019-01-09T10:02:08.417Z,100244.14
2019-01-09T10:04:38.318Z,100244.08
2019-01-09T10:07:08.220Z,100250.59
2019-01-09T10:09:38.109Z,100251.23
2019-01-09T10:12:08.098Z,100259.08
2019-01-09T10:14:38.046Z,100256.45
2019-01-09T10:17:08.335Z,100253.33
2019-01-09T10:19:38.498Z,100258.83
2019-01-09T10:22:08.584Z,100261.78
2019-01-09T10:24:38.878Z,100265.45
2019-01-09T10:27:08.789Z,100278.59
2019-01-09T10:29:38.940Z,100276.84
2019-01-09T10:32:08.827Z,100276.65
2019-01-09T10:34:39.311Z,100281.88
2019-01-09T10:37:09.796Z,100286.11
2019-01-09T10:39:39.850Z,100296.09
2019-01-09T10:42:10.961Z,100291.00
2019-01-09T10:44:40.884Z,100293.05
2019-01-09T10:47:10.761Z,100289.83
2019-01-09T10:49:40.828Z,100302.02
2019-01-09T10:52:10.908Z,100308.58
2019-01-09T10:54:40.960Z,100297.70
2019-01-09T10:57:11.106Z,100303.47
2019-01-09T10:59:41.066Z,100303.58
2019-01-09T11:02:11.325Z,100301.75
2019-01-09T11:04:41.607Z,100310.30
2019-01-09T11:07:11.585Z,100307.44
2019-01-09T11:09:41.554Z,100310.89
2019-01-09T11:12:11.575Z,100312.61
2019-01-09T11:14:41.441Z,100307.44
2019-01-09T11:17:11.577Z,100305.45
2019-01-09T11:19:41.453Z,100312.97
2019-01-09T11:22:11.348Z,100316.94
2019-01-09T11:24:41.227Z,100321.90
2019-01-09T11:27:11.410Z,100323.42
2019-01-09T11:29:41.340Z,100322.56
2019-01-09T11:32:11.350Z,100339.08
2019-01-09T11:34:41.351Z,100327.41
2019-01-09T11:37:11.247Z,100337.80
2019-01-09T11:39:41.797Z,100324.70
2019-01-09T11:42:11.920Z,100336.67
2019-01-09T11:44:41.878Z,100358.01
2019-01-09T11:47:11.879Z,100342.29
2019-01-09T11:49:41.774Z,100344.05
2019-01-09T11:52:12.035Z,100339.83
2019-01-09T11:54:42.181Z,100356.48
2019-01-09T11:57:12.117Z,100347.81
2019-01-09T11:59:42.434Z,100349.03
2019-01-09T12:02:12.921Z,100363.67
2019-01-09T12:04:42.790Z,100363.63
2019-01-09T12:07:12.678Z,100369.10
2019-01-09T12:09:42.540Z,100366.66
2019-01-09T12:12:12.639Z,100367.19
2019-01-09T12:14:42.524Z,100371.52
2019-01-09T12:17:12.555Z,100381.11
2019-01-09T12:19:42.437Z,100375.27
2019-01-09T12:22:12.328Z,100384.08
2019-01-09T12:24:42.238Z,100390.36
2019-01-09T12:27:12.454Z,100395.59
2019-01-09T12:29:42.359Z,100396.45
2019-01-09T12:32:12.257Z,100388.34
2019-01-09T12:34:45.137Z,100403.84
2019-01-09T12:37:15.126Z,100402.33
2019-01-09T12:39:45.094Z,100400.92
2019-01-09T12:42:15.106Z,100400.03
2019-01-09T12:44:45.068Z,100403.13
2019-01-09T12:47:15.118Z,100409.48
2019-01-09T12:49:45.627Z,100417.47
2019-01-09T12:52:15.745Z,100412.52
2019-01-09T12:54:45.737Z,100426.52
2019-01-09T12:57:16.434Z,100425.61
2019-01-09T12:59:46.568Z,100426.03
2019-01-09T13:02:16.624Z,100449.19
2019-01-09T13:04:46.885Z,100442.91
2019-01-09T13:07:17.200Z,100439.09
2019-01-09T13:09:47.110Z,100442.57
2019-01-09T13:12:17.012Z,100456.23
2019-01-09T13:14:47.139Z,100462.69
2019-01-09T13:17:17.286Z,100456.78
2019-01-09T13:19:47.173Z,100460.36
2019-01-09T13:22:17.095Z,100469.81
2019-01-09T13:24:47.011Z,100474.73
2019-01-09T13:27:17.111Z,100465.62
2019-01-09T13:29:47.113Z,100460.52
2019-01-09T13:32:17.421Z,100484.18
2019-01-09T13:34:47.407Z,100480.63
2019-01-09T13:37:17.336Z,100486.85
2019-01-09T13:39:47.623Z,100492.43
2019-01-09T13:42:17.574Z,100482.92
2019-01-09T13:44:47.776Z,100488.02
2019-01-09T13:47:17.634Z,100496.12
2019-01-09T13:49:47.649Z,100501.78
2019-01-09T13:52:17.575Z,100505.05
2019-01-09T13:54:47.474Z,100507.02
2019-01-09T13:57:17.772Z,100523.22
2019-01-09T13:59:48.099Z,100518.66
2019-01-09T14:02:17.998Z,100522.64
2019-01-09T14:04:47.901Z,100525.91
2019-01-09T14:07:18.084Z,100520.65
2019-01-09T14:09:48.080Z,100527.59
2019-01-09T14:12:18.022Z,100524.41
2019-01-09T14:14:47.919Z,100526.88
2019-01-09T14:17:17.806Z,100526.30
2019-01-09T14:19:48.875Z,100539.39
2019-01-09T14:22:18.823Z,100544.14
2019-01-09T14:24:48.756Z,100541.44
2019-01-09T14:27:18.698Z,100534.89
2019-01-09T14:29:48.619Z,100537.67
2019-01-09T14:32:18.859Z,100540.20
2019-01-09T14:34:48.777Z,100551.88
2019-01-09T14:37:18.655Z,100554.14
2019-01-09T14:39:48.654Z,100558.59
2019-01-09T14:42:18.633Z,100564.49
2019-01-09T14:44:48.579Z,100573.77
2019-01-09T14:47:18.492Z,100570.19
2019-01-09T14:49:48.615Z,100575.55
2019-01-09T14:52:18.539Z,100584.68
2019-01-09T14:54:48.555Z,100587.18
2019-01-09T14:57:18.924Z,100597.18
2019-01-09T14:59:48.831Z,100600.02
2019-01-09T15:02:18.730Z,100606.48
2019-01-09T15:04:48.871Z,100613.53
2019-01-09T15:07:19.412Z,100619.59
2019-01-09T15:09:56.638Z,100618.59
2019-01-09T15:12:21.372Z,100626.63
2019-01-09T15:14:52.437Z,100629.61
2019-01-09T15:17:22.400Z,100630.11
2019-01-09T15:19:52.518Z,100634.41
2019-01-09T15:22:22.598Z,100635.27
2019-01-09T15:24:52.739Z,100642.30
2019-01-09T15:27:23.002Z,100656.67
2019-01-09T15:29:54.452Z,100651.85
2019-01-09T15:32:24.663Z,100665.46
2019-01-09T15:34:54.622Z,100663.42
2019-01-09T15:37:25.122Z,100655.89
2019-01-09T15:39:55.165Z,100663.34
2019-01-09T15:42:25.085Z,100677.85
2019-01-09T15:44:55.291Z,100676.28
2019-01-09T15:47:25.474Z,100674.48
2019-01-09T15:49:55.634Z,100681.18
2019-01-09T15:52:25.637Z,100695.97
2019-01-09T15:54:55.579Z,100697.95
2019-01-09T15:57:25.801Z,100684.66
2019-01-09T15:59:55.793Z,100694.70
2019-01-09T16:02:25.722Z,100689.52
2019-01-09T16:04:55.694Z,100687.42
2019-01-09T16:07:25.690Z,100687.16
2019-01-09T16:09:55.716Z,100696.51
2019-01-09T16:12:25.627Z,100705.37
2019-01-09T16:14:55.560Z,100700.27
2019-01-09T16:17:25.565Z,100717.05
2019-01-09T16:19:55.465Z,100704.16
2019-01-09T16:22:25.597Z,100707.55
2019-01-09T16:24:55.764Z,100715.16
2019-01-09T16:27:26.056Z,100726.25
2019-01-09T16:29:56.122Z,100719.36
2019-01-09T16:32:26.636Z,100731.74
2019-01-09T16:34:57.006Z,100729.13
2019-01-09T16:37:26.902Z,100730.89
2019-01-09T16:39:57.032Z,100725.55
2019-01-09T16:42:26.962Z,100743.73
2019-01-09T16:44:56.878Z,100738.77
2019-01-09T16:47:26.723Z,100752.88
2019-01-09T16:49:56.615Z,100744.91
2019-01-09T16:52:26.564Z,100751.81
2019-01-09T16:54:56.520Z,100764.24
2019-01-09T16:57:26.690Z,100760.59
2019-01-09T16:59:57.400Z,100759.52
2019-01-09T17:02:27.417Z,100762.03
2019-01-09T17:04:57.322Z,100769.53
2019-01-09T17:07:27.712Z,100772.56
2019-01-09T17:09:57.698Z,100773.77
2019-01-09T17:12:27.702Z,100775.11
2019-01-09T17:14:57.731Z,100796.72
2019-01-09T17:17:27.621Z,100788.56
2019-01-09T17:19:59.654Z,100797.01
2019-01-09T17:22:30.431Z,100786.64
2019-01-09T17:25:01.090Z,100797.56
2019-01-09T17:27:31.764Z,100804.13
2019-01-09T17:30:03.005Z,100795.97
2019-01-09T17:32:33.001Z,100808.56
2019-01-09T17:35:03.612Z,100806.95
2019-01-09T17:37:35.124Z,100815.59
2019-01-09T17:40:07.077Z,100833.22
2019-01-09T17:42:38.419Z,100832.40
2019-01-09T17:45:09.321Z,100827.94
2019-01-09T17:47:40.553Z,100841.30
2019-01-09T17:50:28.099Z,100854.10
2019-01-09T17:53:00.149Z,100850.94
2019-01-09T17:55:30.282Z,100855.49
2019-01-09T17:58:00.143Z,100868.14
2019-01-09T18:00:39.935Z,100868.14
2019-01-09T18:03:10.072Z,100871.49
2019-01-09T18:05:40.326Z,100896.06
2019-01-09T18:08:12.229Z,100883.73
2019-01-09T18:10:49.974Z,100891.20
2019-01-09T18:13:13.827Z,100888.47
2019-01-09T18:15:43.698Z,100892.85
2019-01-09T18:18:13.801Z,100904.56
2019-01-09T18:20:43.680Z,100914.95
2019-01-09T18:23:13.751Z,100919.65
2019-01-09T18:25:43.630Z,100913.20
2019-01-09T18:28:13.636Z,100914.69
2019-01-09T18:30:52.034Z,100920.25
2019-01-09T18:33:37.215Z,100943.02
2019-01-09T18:36:30.602Z,100951.38
2019-01-09T18:39:46.847Z,100945.38
2019-01-09T18:42:53.114Z,100948.69
2019-01-09T18:45:49.247Z,100955.67
2019-01-09T18:49:25.441Z,100959.87
2019-01-09T18:52:30.618Z,100964.58
2019-01-09T18:55:00.649Z,100974.09
2019-01-09T18:57:30.581Z,100980.41
2019-01-09T19:00:00.881Z,100980.30
2019-01-09T19:02:30.837Z,100985.48
2019-01-09T19:05:00.987Z,100990.78
2019-01-09T19:07:30.947Z,100987.28
2019-01-09T19:10:00.995Z,101002.72
2019-01-09T19:12:30.895Z,101001.16
2019-01-09T19:15:01.092Z,101002.94
2019-01-09T19:17:31.108Z,101012.79
2019-01-09T19:20:01.127Z,101016.37
2019-01-09T19:22:31.269Z,101017.72
2019-01-09T19:25:01.274Z,101023.73
2019-01-09T19:27:31.201Z,101026.22
2019-01-09T19:30:01.313Z,101031.76
2019-01-09T19:32:31.189Z,101037.77
2019-01-09T19:35:01.091Z,101039.12
2019-01-09T19:37:31.864Z,101043.87
2019-01-09T19:40:01.821Z,101041.52
2019-01-09T19:42:31.721Z,101044.88
2019-01-09T19:45:01.717Z,101049.53
2019-01-09T19:47:31.632Z,101066.05
2019-01-09T19:50:01.945Z,101066.64
2019-01-09T19:52:32.097Z,101074.42
2019-01-09T19:55:02.134Z,101068.45
2019-01-09T19:57:32.314Z,101077.53
2019-01-09T20:00:02.473Z,101079.57
2019-01-09T20:02:32.426Z,101078.22
2019-01-09T20:05:02.341Z,101094.17
2019-01-09T20:07:32.328Z,101092.44
2019-01-09T20:10:02.371Z,101095.53
2019-01-09T20:12:32.908Z,101094.98
2019-01-09T20:15:02.892Z,101103.20
2019-01-09T20:17:33.065Z,101113.08
2019-01-09T20:20:03.695Z,101104.92
2019-01-09T20:22:33.629Z,101108.16
2019-01-09T20:25:04.775Z,101123.53
2019-01-09T20:27:34.763Z,101127.96
2019-01-09T20:30:07.532Z,101130.55
2019-01-09T20:32:37.570Z,101126.73
2019-01-09T20:35:07.981Z,101137.28
2019-01-09T20:37:38.092Z,101138.23
2019-01-09T20:40:10.650Z,101145.19
2019-01-09T20:42:40.914Z,101144.34
2019-01-09T20:45:12.818Z,101154.80
2019-01-09T20:47:44.066Z,101146.75
2019-01-09T20:50:19.518Z,101153.06
2019-01-09T20:52:50.279Z,101151.63
2019-01-09T20:55:20.653Z,101159.66
2019-01-09T20:57:51.399Z,101160.95
2019-01-09T21:00:25.471Z,101169.60
2019-01-09T21:03:02.137Z,101176.27
2019-01-09T21:05:36.478Z,101178.82
2019-01-09T21:08:07.399Z,101182.59
2019-01-09T21:10:37.942Z,101191.51
2019-01-09T21:13:08.726Z,101189.17
2019-01-09T21:15:40.751Z,101202.38
2019-01-09T21:18:11.584Z,101207.20
2019-01-09T21:20:42.152Z,101210.75
2019-01-09T21:23:12.552Z,101205.20
2019-01-09T21:25:42.559Z,101216.80
2019-01-09T21:28:13.088Z,101220.99
2019-01-09T21:30:46.819Z,101221.70
2019-01-09T21:33:16.732Z,101220.30
2019-01-09T21:35:46.611Z,101224.17
2019-01-09T21:38:18.717Z,101220.31
2019-01-09T21:40:48.634Z,101222.76
2019-01-09T21:43:18.709Z,101235.64
2019-01-09T21:45:48.979Z,101243.55
2019-01-09T21:48:19.555Z,101240.00
2019-01-09T21:50:49.409Z,101245.13
2019-01-09T21:53:19.478Z,101248.64
2019-01-09T21:55:50.998Z,101249.38
2019-01-09T21:58:21.689Z,101252.83
2019-01-09T22:00:51.566Z,101249.75
2019-01-09T22:03:21.467Z,101253.97
2019-01-09T22:05:51.434Z,101268.55
2019-01-09T22:08:21.525Z,101257.20
2019-01-09T22:10:52.975Z,101263.98
2019-01-09T22:13:24.280Z,101270.62
2019-01-09T22:15:55.801Z,101276.69
2019-01-09T22:18:26.009Z,101276.23
2019-01-09T22:20:55.981Z,101276.42
2019-01-09T22:23:26.412Z,101275.88
2019-01-09T22:25:56.771Z,101279.84
2019-01-09T22:28:26.753Z,101292.22
2019-01-09T22:30:56.787Z,101292.02
2019-01-09T22:33:27.547Z,101297.67
2019-01-09T22:35:58.260Z,101300.91
2019-01-09T22:38:29.290Z,101296.37
2019-01-09T22:40:59.928Z,101308.98
2019-01-09T22:43:29.828Z,101304.83
2019-01-09T22:46:00.039Z,101310.98
2019-01-09T22:48:30.654Z,101325.75
2019-01-09T22:51:01.574Z,101326.97
2019-01-09T22:53:32.362Z,101321.77
2019-01-09T22:56:02.822Z,101326.56
2019-01-09T22:58:32.710Z,101323.72
2019-01-09T23:01:16.752Z,101337.08
2019-01-09T23:03:47.749Z,101331.30
2019-01-09T23:06:18.248Z,101336.69
2019-01-09T23:08:49.294Z,101341.92
2019-01-09T23:11:19.412Z,101342.79
2019-01-09T23:13:49.995Z,101332.80
2019-01-09T23:16:20.027Z,101332.54
2019-01-09T23:18:50.407Z,101336.36
2019-01-09T23:21:21.273Z,101348.27
2019-01-09T23:23:51.650Z,101341.85
2019-01-09T23:26:22.034Z,101352.72
2019-01-09T23:28:52.674Z,101361.39
2019-01-09T23:31:23.784Z,101353.77
2019-01-09T23:33:54.190Z,101363.55
2019-01-09T23:36:24.412Z,101356.63
2019-01-09T23:38:54.771Z,101363.17
2019-01-09T23:41:24.781Z,101368.87
2019-01-09T23:43:55.195Z,101377.38
2019-01-09T23:46:25.119Z,101374.28
2019-01-09T23:48:55.822Z,101381.92
2019-01-09T23:51:27.385Z,101386.00
2019-01-09T23:53:57.611Z,101394.09
2019-01-09T23:56:27.750Z,101390.84
2019-01-09T23:58:59.014Z,101396.48
